Time;durP1;ratioP1;P1;durP2;ratioP2;P2;SDS_P1;SDS_P2;PMS_P1;PMS_P2;Temp;Humidity;BMP_temperature;BMP_pressure;BME280_temperature;BME280_humidity;BME280_pressure;Samples;Min_cycle;Max_cycle;Signal;HPM_P1;HPM_P2
2023/07/27 00:00:15;;;;;;;9.80;9.10;;;13.20;99.90;;;;;;5034668;28;20670;-79
2023/07/27 00:02:44;;;;;;;10.03;9.00;;;13.20;99.90;;;;;;5040611;28;20188;-78
2023/07/27 00:05:12;;;;;;;9.60;8.90;;;13.10;99.90;;;;;;5038879;28;20215;-76
2023/07/27 00:07:39;;;;;;;9.43;8.73;;;13.10;99.90;;;;;;5033750;28;20305;-76
2023/07/27 00:10:07;;;;;;;9.50;8.77;;;13.10;99.90;;;;;;5034973;28;20206;-76
2023/07/27 00:12:34;;;;;;;10.43;9.63;;;13.00;99.90;;;;;;5033625;28;20258;-76
2023/07/27 00:15:00;;;;;;;9.70;8.90;;;13.10;99.90;;;;;;5034808;28;20231;-76
2023/07/27 00:17:27;;;;;;;9.87;9.17;;;13.00;99.90;;;;;;5048557;28;20227;-78
2023/07/27 00:19:56;;;;;;;10.00;9.20;;;13.00;99.90;;;;;;5038778;28;20294;-77
2023/07/27 00:22:22;;;;;;;10.17;9.27;;;12.90;99.90;;;;;;5035259;28;20213;-76
2023/07/27 00:24:49;;;;;;;9.10;8.40;;;12.90;99.90;;;;;;5035078;28;20762;-76
2023/07/27 00:27:16;;;;;;;9.87;9.03;;;12.80;99.90;;;;;;5034852;28;20211;-76
2023/07/27 00:29:45;;;;;;;9.90;9.10;;;12.80;99.90;;;;;;5033468;28;20221;-76
2023/07/27 00:32:12;;;;;;;9.70;9.00;;;12.80;99.90;;;;;;5033586;28;20208;-76
2023/07/27 00:34:39;;;;;;;9.10;8.50;;;12.70;99.90;;;;;;5034477;28;20243;-76
2023/07/27 00:37:07;;;;;;;10.00;9.20;;;12.80;99.90;;;;;;5033413;28;20293;-76
2023/07/27 00:39:34;;;;;;;9.80;9.00;;;12.70;99.90;;;;;;5044209;28;20226;-77
2023/07/27 00:42:01;;;;;;;10.10;9.20;;;12.70;99.90;;;;;;5036636;28;20204;-77
2023/07/27 00:44:28;;;;;;;10.27;9.47;;;12.70;99.90;;;;;;5040217;28;20220;-78
2023/07/27 00:46:55;;;;;;;10.27;9.40;;;12.60;99.90;;;;;;5044514;28;20294;-77
2023/07/27 00:49:22;;;;;;;10.03;9.30;;;12.60;99.90;;;;;;5036453;28;20211;-76
2023/07/27 00:51:50;;;;;;;10.17;9.47;;;12.50;99.90;;;;;;5037678;28;20196;-79
2023/07/27 00:54:19;;;;;;;10.30;9.60;;;12.50;99.90;;;;;;5036713;28;20223;-76
2023/07/27 00:56:46;;;;;;;9.50;8.90;;;12.60;99.90;;;;;;5032611;28;20196;-76
2023/07/27 00:59:14;;;;;;;9.67;9.07;;;12.60;99.90;;;;;;5033978;28;20199;-76
2023/07/27 01:01:40;;;;;;;9.63;8.97;;;12.60;99.90;;;;;;5041407;28;20259;-79
2023/07/27 01:04:08;;;;;;;9.17;8.57;;;12.60;99.90;;;;;;5045363;28;20222;-76
2023/07/27 01:06:34;;;;;;;9.70;9.00;;;12.50;99.90;;;;;;5042259;28;20253;-76
2023/07/27 01:09:02;;;;;;;9.97;9.20;;;12.50;99.90;;;;;;5033205;28;20250;-76
2023/07/27 01:11:45;;;;;;;9.97;9.27;;;12.40;99.90;;;;;;5043408;28;20689;-76
2023/07/27 01:14:20;;;;;;;10.30;9.50;;;12.30;99.90;;;;;;5032824;28;20584;-76
2023/07/27 01:16:52;;;;;;;8.90;8.30;;;12.30;99.90;;;;;;5032653;28;20231;-76
2023/07/27 01:19:46;;;;;;;10.63;9.90;;;12.20;99.90;;;;;;5032424;28;20206;-76
2023/07/27 01:22:37;;;;;;;10.60;9.80;;;12.10;99.90;;;;;;5041636;28;20213;-76
2023/07/27 01:25:21;;;;;;;9.13;8.43;;;12.10;99.90;;;;;;5032598;28;20218;-76
2023/07/27 01:28:02;;;;;;;10.80;9.47;;;12.10;99.90;;;;;;5041452;28;20567;-76
2023/07/27 01:30:49;;;;;;;6.97;6.37;;;12.10;99.90;;;;;;5041634;28;20200;-76
2023/07/27 01:33:21;;;;;;;4.13;3.70;;;12.10;99.90;;;;;;5045895;28;20304;-76
2023/07/27 01:35:52;;;;;;;9.37;8.67;;;12.00;99.90;;;;;;5050139;28;20584;-76
2023/07/27 01:38:19;;;;;;;7.53;6.83;;;12.00;99.90;;;;;;5044883;28;20209;-76
2023/07/27 01:40:47;;;;;;;10.07;9.37;;;11.90;99.90;;;;;;5031635;28;20735;-76
2023/07/27 01:43:15;;;;;;;8.83;7.97;;;11.90;99.90;;;;;;5040874;28;20210;-76
2023/07/27 01:45:42;;;;;;;7.23;6.13;;;11.90;99.90;;;;;;5037827;28;20206;-77
2023/07/27 01:48:11;;;;;;;10.13;9.43;;;11.90;99.90;;;;;;5041632;28;20217;-80
2023/07/27 01:50:39;;;;;;;7.43;6.70;;;11.80;99.90;;;;;;5044119;28;20204;-77
2023/07/27 01:53:07;;;;;;;8.37;7.67;;;11.70;99.90;;;;;;5040970;28;20211;-77
2023/07/27 01:55:36;;;;;;;11.20;10.30;;;11.70;99.90;;;;;;5034760;28;20295;-77
2023/07/27 01:58:04;;;;;;;8.17;7.50;;;11.70;99.90;;;;;;5034477;28;20199;-77
2023/07/27 02:00:32;;;;;;;5.53;5.03;;;11.60;99.90;;;;;;5034120;28;20289;-77
2023/07/27 02:02:59;;;;;;;6.57;5.03;;;11.60;99.90;;;;;;5035649;28;20213;-77
2023/07/27 02:05:27;;;;;;;10.13;9.13;;;11.60;99.90;;;;;;5033896;28;20236;-78
2023/07/27 02:07:54;;;;;;;7.00;6.13;;;11.50;99.90;;;;;;5042207;28;20220;-76
2023/07/27 02:10:22;;;;;;;5.93;5.00;;;11.50;99.90;;;;;;5035081;28;20679;-77
2023/07/27 02:12:55;;;;;;;5.40;4.60;;;11.60;99.90;;;;;;5035518;28;20208;-76
2023/07/27 02:15:25;;;;;;;6.57;5.97;;;11.60;99.90;;;;;;5033670;28;20256;-78
2023/07/27 02:17:58;;;;;;;11.70;10.80;;;11.60;99.90;;;;;;5034287;28;20668;-78
2023/07/27 02:20:31;;;;;;;6.03;5.40;;;11.70;99.90;;;;;;5033592;28;20208;-78
2023/07/27 02:22:58;;;;;;;11.40;10.60;;;11.70;99.90;;;;;;5033920;28;20201;-76
2023/07/27 02:25:25;;;;;;;11.10;10.20;;;11.70;99.90;;;;;;5033771;28;20237;-78
2023/07/27 02:27:52;;;;;;;10.73;9.93;;;11.70;99.90;;;;;;5036822;28;20258;-78
2023/07/27 02:30:19;;;;;;;10.97;10.17;;;11.70;99.90;;;;;;5040655;28;20467;-77
2023/07/27 02:32:46;;;;;;;5.10;4.60;;;11.70;99.90;;;;;;5035167;28;20292;-76
2023/07/27 02:35:13;;;;;;;5.67;4.97;;;11.70;99.90;;;;;;5033633;28;20216;-78
2023/07/27 02:37:44;;;;;;;4.60;4.20;;;11.70;99.90;;;;;;5034156;28;20222;-79
2023/07/27 02:40:11;;;;;;;6.00;5.37;;;11.70;99.90;;;;;;5037759;28;20205;-77
2023/07/27 02:42:37;;;;;;;10.23;9.43;;;11.70;99.90;;;;;;5047181;28;20559;-78
2023/07/27 02:45:05;;;;;;;7.77;7.17;;;11.80;99.90;;;;;;5040255;28;20209;-76
2023/07/27 02:47:38;;;;;;;5.47;4.97;;;11.90;99.90;;;;;;5033413;28;20214;-78
2023/07/27 02:50:06;;;;;;;6.10;5.60;;;11.90;99.90;;;;;;5033438;28;20231;-78
2023/07/27 02:52:45;;;;;;;10.33;9.63;;;12.00;99.90;;;;;;5036766;28;20197;-79
2023/07/27 02:55:12;;;;;;;6.23;5.73;;;12.00;99.90;;;;;;5038875;28;20214;-81
2023/07/27 02:57:39;;;;;;;5.03;4.60;;;12.00;99.90;;;;;;5047408;28;20223;-79
2023/07/27 03:00:09;;;;;;;10.20;9.50;;;12.10;99.90;;;;;;5040274;28;20227;-79
2023/07/27 03:02:36;;;;;;;10.10;9.40;;;12.10;99.90;;;;;;5052684;28;20292;-79
2023/07/27 03:05:06;;;;;;;9.93;9.23;;;12.10;99.90;;;;;;5051654;28;20218;-79
2023/07/27 03:07:33;;;;;;;9.77;9.07;;;12.20;99.90;;;;;;5056582;28;20219;-80
2023/07/27 03:10:01;;;;;;;9.60;9.00;;;12.20;99.90;;;;;;5049378;28;20193;-79
2023/07/27 03:12:28;;;;;;;9.60;9.00;;;12.20;99.90;;;;;;5050791;28;20247;-79
2023/07/27 03:14:55;;;;;;;10.00;9.20;;;12.30;99.90;;;;;;5052503;28;21460;-80
2023/07/27 03:17:22;;;;;;;9.03;8.43;;;12.20;99.90;;;;;;5048764;28;20559;-79
2023/07/27 03:19:48;;;;;;;9.03;8.43;;;12.20;99.90;;;;;;5037093;28;20559;-78
2023/07/27 03:22:15;;;;;;;9.40;8.70;;;12.20;99.90;;;;;;5033373;28;20206;-75
2023/07/27 03:24:42;;;;;;;9.67;9.00;;;12.20;99.90;;;;;;5039895;28;20422;-75
2023/07/27 03:27:10;;;;;;;9.50;8.90;;;12.20;99.90;;;;;;5037817;28;20243;-75
2023/07/27 03:29:37;;;;;;;10.07;9.37;;;12.30;99.90;;;;;;5048702;28;20200;-74
2023/07/27 03:32:04;;;;;;;9.47;8.77;;;12.20;99.90;;;;;;5035859;28;20202;-75
2023/07/27 03:34:31;;;;;;;10.43;9.63;;;12.20;99.90;;;;;;5030976;28;20775;-75
2023/07/27 03:36:58;;;;;;;9.40;8.80;;;12.30;99.90;;;;;;5045235;28;20244;-75
2023/07/27 03:39:25;;;;;;;10.00;9.30;;;12.30;99.90;;;;;;5040483;28;20198;-75
2023/07/27 03:41:52;;;;;;;9.50;8.90;;;12.30;99.90;;;;;;5029985;28;20200;-75
2023/07/27 03:44:20;;;;;;;10.30;9.50;;;12.30;99.90;;;;;;5038989;28;20223;-75
2023/07/27 03:46:47;;;;;;;10.00;9.40;;;12.30;99.90;;;;;;5029371;28;20575;-75
2023/07/27 03:49:13;;;;;;;9.80;9.20;;;12.30;99.90;;;;;;5029770;28;20202;-75
2023/07/27 03:51:40;;;;;;;9.93;9.23;;;12.30;99.90;;;;;;5029636;28;20287;-74
2023/07/27 03:54:07;;;;;;;10.20;9.50;;;12.30;99.90;;;;;;5038006;28;20223;-75
2023/07/27 03:56:37;;;;;;;9.63;9.00;;;12.30;99.90;;;;;;5029608;28;20203;-75
2023/07/27 03:59:04;;;;;;;9.70;9.10;;;12.40;99.90;;;;;;5038135;28;20203;-75
2023/07/27 04:01:34;;;;;;;10.90;10.20;;;12.30;99.90;;;;;;5037588;28;20204;-75
2023/07/27 04:04:01;;;;;;;10.20;9.50;;;12.30;99.90;;;;;;5031157;28;20259;-77
2023/07/27 04:06:27;;;;;;;9.70;9.00;;;12.30;99.90;;;;;;5041876;28;20195;-76
2023/07/27 04:08:54;;;;;;;10.37;9.60;;;12.30;99.90;;;;;;5044326;28;20713;-78
2023/07/27 04:11:21;;;;;;;9.93;9.23;;;12.30;99.90;;;;;;5033504;28;20241;-75
2023/07/27 04:13:48;;;;;;;10.20;9.33;;;12.40;99.90;;;;;;5036295;28;20256;-77
2023/07/27 04:16:15;;;;;;;9.77;9.07;;;12.40;99.90;;;;;;5032209;28;20210;-80
2023/07/27 04:18:43;;;;;;;10.03;9.33;;;12.40;99.90;;;;;;5043899;28;20666;-74
2023/07/27 04:21:10;;;;;;;9.87;9.27;;;12.40;99.90;;;;;;5035303;28;20214;-77
2023/07/27 04:23:37;;;;;;;9.83;9.23;;;12.40;99.90;;;;;;5030766;28;20214;-76
2023/07/27 04:26:03;;;;;;;9.27;8.67;;;12.40;99.90;;;;;;5033468;28;20229;-77
2023/07/27 04:28:30;;;;;;;9.70;9.10;;;12.50;99.90;;;;;;5035487;28;20230;-75
2023/07/27 04:30:57;;;;;;;9.33;8.73;;;12.50;99.90;;;;;;5030721;28;20250;-77
2023/07/27 04:33:24;;;;;;;10.07;9.47;;;12.50;99.90;;;;;;5030577;28;20623;-76
2023/07/27 04:35:52;;;;;;;10.23;9.43;;;12.50;99.90;;;;;;5036194;28;20195;-76
2023/07/27 04:38:19;;;;;;;9.97;9.27;;;12.50;99.90;;;;;;5031810;28;20184;-77
2023/07/27 04:40:46;;;;;;;4.40;4.00;;;12.50;99.90;;;;;;5030392;28;20203;-76
2023/07/27 04:43:13;;;;;;;4.00;3.70;;;12.50;99.90;;;;;;5030924;28;20196;-77
2023/07/27 04:45:39;;;;;;;10.87;10.17;;;12.60;99.90;;;;;;5046419;28;20200;-77
2023/07/27 04:48:07;;;;;;;11.43;10.27;;;12.60;99.90;;;;;;5034748;28;20223;-76
2023/07/27 04:50:34;;;;;;;9.77;9.17;;;12.60;99.90;;;;;;5036117;28;20215;-77
2023/07/27 04:53:02;;;;;;;6.97;6.47;;;12.60;99.90;;;;;;5035415;28;20199;-77
2023/07/27 04:55:29;;;;;;;7.27;6.70;;;12.70;99.90;;;;;;5035916;28;20314;-77
2023/07/27 04:57:56;;;;;;;8.00;7.40;;;12.80;99.90;;;;;;5041453;28;20199;-78
2023/07/27 05:00:25;;;;;;;8.63;8.00;;;12.80;99.90;;;;;;5043611;28;20226;-79
2023/07/27 05:02:53;;;;;;;4.00;3.60;;;12.90;99.90;;;;;;5048849;28;20211;-79
2023/07/27 05:05:20;;;;;;;3.93;3.60;;;13.00;99.90;;;;;;5043210;28;20269;-77
2023/07/27 05:07:47;;;;;;;4.17;3.77;;;13.10;99.90;;;;;;5037387;28;20216;-78
2023/07/27 05:10:15;;;;;;;8.63;7.93;;;13.10;99.90;;;;;;5038902;28;20230;-78
2023/07/27 05:12:42;;;;;;;4.47;3.93;;;13.20;99.90;;;;;;5043142;28;20272;-79
2023/07/27 05:15:09;;;;;;;9.00;8.30;;;13.30;99.90;;;;;;5044995;28;20298;-80
2023/07/27 05:17:36;;;;;;;4.37;3.97;;;13.40;99.90;;;;;;5037805;28;20188;-77
2023/07/27 05:20:04;;;;;;;4.67;4.27;;;13.50;99.90;;;;;;5038967;28;20219;-76
2023/07/27 05:22:31;;;;;;;4.27;3.87;;;13.60;99.90;;;;;;5037620;28;20202;-74
2023/07/27 05:24:58;;;;;;;5.20;3.50;;;13.70;99.90;;;;;;5041152;28;20655;-75
2023/07/27 05:27:26;;;;;;;3.93;3.53;;;13.70;99.90;;;;;;5043055;28;20211;-75
2023/07/27 05:29:53;;;;;;;3.83;3.37;;;13.80;99.90;;;;;;5048933;28;20223;-75
2023/07/27 05:32:19;;;;;;;4.40;4.10;;;13.80;99.90;;;;;;5035299;28;20197;-74
2023/07/27 05:34:46;;;;;;;7.37;6.83;;;13.80;99.90;;;;;;5040750;28;20257;-74
2023/07/27 05:37:14;;;;;;;4.60;3.90;;;13.90;99.90;;;;;;5039306;28;20247;-75
2023/07/27 05:39:41;;;;;;;5.70;5.30;;;14.00;99.90;;;;;;5038944;28;20658;-77
2023/07/27 05:42:07;;;;;;;3.90;3.60;;;14.10;99.90;;;;;;5032712;28;20205;-75
2023/07/27 05:44:35;;;;;;;3.60;3.30;;;14.20;99.90;;;;;;5030940;28;20828;-75
2023/07/27 05:47:04;;;;;;;5.53;5.13;;;14.20;99.90;;;;;;5034412;28;20595;-75
2023/07/27 05:49:32;;;;;;;5.83;5.43;;;14.40;99.90;;;;;;5032528;28;20283;-75
2023/07/27 05:51:58;;;;;;;3.33;3.00;;;14.50;99.90;;;;;;5032716;28;20206;-75
2023/07/27 05:54:25;;;;;;;3.80;3.50;;;14.70;99.90;;;;;;5032680;28;20217;-75
2023/07/27 05:56:52;;;;;;;4.00;3.70;;;14.80;99.90;;;;;;5032004;28;20196;-75
2023/07/27 05:59:19;;;;;;;4.43;4.13;;;14.90;99.90;;;;;;5032489;28;20579;-75
2023/07/27 06:01:47;;;;;;;3.33;3.03;;;14.90;99.90;;;;;;5032867;28;20685;-75
2023/07/27 06:04:14;;;;;;;3.30;3.10;;;14.90;99.90;;;;;;5032522;28;20278;-75
2023/07/27 06:06:44;;;;;;;6.10;5.63;;;14.90;99.90;;;;;;5032568;28;20213;-75
2023/07/27 06:09:11;;;;;;;10.00;9.30;;;15.00;99.90;;;;;;5032323;28;20299;-75
2023/07/27 06:11:39;;;;;;;8.77;8.17;;;15.00;99.90;;;;;;5032482;28;20282;-75
2023/07/27 06:14:06;;;;;;;3.37;3.10;;;15.10;99.90;;;;;;5031158;28;20327;-74
2023/07/27 06:16:33;;;;;;;3.73;3.37;;;15.20;99.90;;;;;;5031332;28;20631;-75
2023/07/27 06:19:01;;;;;;;7.47;6.90;;;15.30;99.90;;;;;;5030722;28;20627;-75
2023/07/27 06:21:28;;;;;;;6.33;5.83;;;15.50;99.90;;;;;;5032506;28;20285;-75
2023/07/27 06:23:55;;;;;;;8.50;7.90;;;15.70;99.90;;;;;;5032142;28;20234;-75
2023/07/27 06:26:22;;;;;;;3.57;3.27;;;15.80;99.90;;;;;;5031279;28;20225;-75
2023/07/27 06:28:49;;;;;;;5.40;5.00;;;15.90;99.90;;;;;;5034091;28;20276;-78
2023/07/27 06:31:15;;;;;;;5.50;5.10;;;16.10;99.90;;;;;;5039312;28;20675;-78
2023/07/27 06:33:42;;;;;;;7.23;6.73;;;16.20;99.90;;;;;;5049238;28;20648;-78
2023/07/27 06:36:11;;;;;;;7.20;6.70;;;16.30;99.90;;;;;;5043971;28;20207;-79
2023/07/27 06:38:38;;;;;;;6.83;6.13;;;16.30;99.90;;;;;;5041087;28;20199;-78
2023/07/27 06:41:06;;;;;;;4.00;3.20;;;16.40;99.90;;;;;;5055579;28;20218;-79
2023/07/27 06:43:33;;;;;;;8.07;7.37;;;16.40;99.90;;;;;;5046332;28;20219;-77
2023/07/27 06:45:59;;;;;;;7.23;6.63;;;16.40;99.90;;;;;;5038453;28;20703;-78
2023/07/27 06:48:26;;;;;;;5.73;4.47;;;16.50;99.90;;;;;;5050328;28;20285;-79
2023/07/27 06:50:53;;;;;;;3.93;3.50;;;16.60;99.90;;;;;;5051988;28;20671;-76
2023/07/27 06:53:21;;;;;;;4.10;3.70;;;16.80;99.90;;;;;;5036332;28;20226;-75
2023/07/27 06:55:48;;;;;;;5.13;4.37;;;17.10;99.90;;;;;;5041757;28;20211;-75
2023/07/27 06:58:15;;;;;;;5.50;5.00;;;17.20;99.90;;;;;;5033909;28;20854;-75
2023/07/27 07:00:42;;;;;;;4.07;3.60;;;17.40;99.90;;;;;;5031683;28;20195;-75
2023/07/27 07:03:09;;;;;;;5.73;4.80;;;17.60;99.90;;;;;;5037335;28;20756;-76
2023/07/27 07:05:36;;;;;;;3.80;3.50;;;17.70;99.90;;;;;;5039562;28;20276;-75
2023/07/27 07:08:02;;;;;;;7.63;7.03;;;17.70;99.90;;;;;;5043003;28;20215;-76
2023/07/27 07:10:30;;;;;;;4.67;4.00;;;17.80;99.90;;;;;;5044238;28;20199;-75
2023/07/27 07:12:57;;;;;;;9.30;8.60;;;17.70;99.90;;;;;;5044015;28;20290;-75
2023/07/27 07:15:24;;;;;;;9.67;8.97;;;17.80;99.90;;;;;;5044320;28;20236;-76
2023/07/27 07:17:51;;;;;;;9.33;8.73;;;17.90;99.90;;;;;;5048123;28;20200;-78
2023/07/27 07:20:18;;;;;;;7.27;6.60;;;17.90;99.90;;;;;;5048948;28;20203;-76
2023/07/27 07:22:44;;;;;;;4.63;4.20;;;18.00;99.90;;;;;;5049672;28;20211;-78
2023/07/27 07:25:11;;;;;;;9.70;9.07;;;18.10;99.90;;;;;;5047727;28;20230;-77
2023/07/27 07:27:39;;;;;;;5.70;3.57;;;18.10;99.90;;;;;;5046408;28;20195;-77
2023/07/27 07:30:09;;;;;;;3.53;3.23;;;18.20;99.90;;;;;;5044816;28;20206;-77
2023/07/27 07:32:36;;;;;;;4.27;3.97;;;18.30;99.90;;;;;;5045720;28;20553;-76
2023/07/27 07:35:02;;;;;;;4.37;3.77;;;18.40;99.90;;;;;;5040324;28;20249;-76
2023/07/27 07:37:29;;;;;;;10.27;9.47;;;18.50;99.90;;;;;;5043321;28;20215;-77
2023/07/27 07:39:56;;;;;;;5.83;3.27;;;18.70;99.90;;;;;;5042050;28;20202;-77
2023/07/27 07:42:23;;;;;;;4.30;3.90;;;18.80;99.90;;;;;;5043420;28;20695;-77
2023/07/27 07:44:52;;;;;;;6.80;6.30;;;18.90;99.90;;;;;;5046610;28;20230;-80
2023/07/27 07:47:19;;;;;;;6.73;6.23;;;19.00;99.90;;;;;;5051367;28;20245;-80
2023/07/27 07:49:45;;;;;;;4.80;3.60;;;19.00;99.90;;;;;;5053673;28;20241;-80
2023/07/27 07:52:13;;;;;;;3.70;3.40;;;19.00;99.90;;;;;;5054718;28;20256;-81
2023/07/27 07:54:40;;;;;;;3.60;3.30;;;19.00;99.90;;;;;;5053175;28;20225;-78
2023/07/27 07:57:07;;;;;;;8.93;8.37;;;18.90;99.90;;;;;;5055707;28;20210;-78
2023/07/27 07:59:34;;;;;;;3.37;3.07;;;18.80;99.90;;;;;;5050869;28;20737;-79
2023/07/27 08:02:02;;;;;;;8.77;8.17;;;18.80;99.90;;;;;;5049758;28;20195;-81
2023/07/27 08:04:30;;;;;;;8.57;7.93;;;18.80;99.90;;;;;;5046573;28;20220;-80
2023/07/27 08:06:57;;;;;;;8.67;7.97;;;18.70;99.90;;;;;;5044721;28;20205;-79
2023/07/27 08:09:24;;;;;;;8.87;8.27;;;18.70;99.90;;;;;;5048945;28;20480;-79
2023/07/27 08:11:52;;;;;;;9.67;9.07;;;18.80;99.90;;;;;;5044920;28;20198;-79
2023/07/27 08:14:19;;;;;;;6.70;6.20;;;18.80;99.90;;;;;;5045443;28;20234;-76
2023/07/27 08:16:46;;;;;;;7.23;6.53;;;18.90;99.90;;;;;;5035345;28;20234;-76
2023/07/27 08:19:14;;;;;;;9.20;8.60;;;19.00;99.90;;;;;;5046864;28;20234;-75
2023/07/27 08:21:41;;;;;;;8.90;8.30;;;19.20;99.90;;;;;;5034555;28;20199;-76
2023/07/27 08:24:08;;;;;;;6.07;3.57;;;19.40;99.90;;;;;;5042664;28;20647;-75
2023/07/27 08:26:35;;;;;;;6.60;4.97;;;19.60;99.90;;;;;;5033429;28;20204;-76
2023/07/27 08:29:02;;;;;;;5.33;5.03;;;19.80;99.90;;;;;;5034718;28;20306;-75
2023/07/27 08:31:29;;;;;;;7.80;7.10;;;19.90;99.90;;;;;;5050818;28;20206;-74
2023/07/27 08:33:56;;;;;;;4.77;3.20;;;19.80;99.90;;;;;;5034224;28;20219;-75
2023/07/27 08:36:24;;;;;;;9.30;8.60;;;19.70;99.90;;;;;;5050485;28;20199;-75
2023/07/27 08:38:51;;;;;;;8.20;7.60;;;19.70;99.90;;;;;;5032838;28;20204;-75
2023/07/27 08:41:18;;;;;;;6.80;6.30;;;19.70;99.90;;;;;;5048001;28;20202;-75
2023/07/27 08:43:45;;;;;;;9.70;8.90;;;19.60;99.90;;;;;;5039357;28;20250;-75
2023/07/27 08:46:13;;;;;;;4.37;3.97;;;19.80;99.90;;;;;;5045661;28;20206;-75
2023/07/27 08:48:41;;;;;;;4.00;3.60;;;19.90;99.90;;;;;;5038721;28;20214;-75
2023/07/27 08:51:08;;;;;;;3.70;3.40;;;20.10;99.90;;;;;;5042076;28;20285;-75
2023/07/27 08:53:36;;;;;;;3.50;3.20;;;20.30;99.90;;;;;;5039739;28;20600;-75
2023/07/27 08:56:03;;;;;;;4.43;3.70;;;20.40;99.90;;;;;;5042985;28;20206;-75
2023/07/27 08:58:31;;;;;;;4.93;3.33;;;20.60;99.90;;;;;;5045742;28;20338;-75
2023/07/27 09:00:57;;;;;;;9.20;8.37;;;20.60;99.90;;;;;;5036532;28;20231;-75
2023/07/27 09:03:25;;;;;;;7.03;6.53;;;20.60;99.90;;;;;;5037299;28;20520;-75
2023/07/27 09:06:00;;;;;;;3.83;3.40;;;20.50;99.90;;;;;;5045454;28;20395;-75
2023/07/27 09:08:29;;;;;;;3.67;3.00;;;20.40;99.90;;;;;;5041419;28;20194;-76
2023/07/27 09:11:05;;;;;;;3.10;2.90;;;20.30;99.90;;;;;;5046709;28;20210;-77
2023/07/27 09:13:32;;;;;;;3.87;3.07;;;20.40;99.90;;;;;;5046051;28;20226;-77
2023/07/27 09:16:00;;;;;;;5.13;4.73;;;20.40;99.90;;;;;;5047978;28;20199;-77
2023/07/27 09:18:27;;;;;;;4.23;3.93;;;20.50;99.90;;;;;;5041676;28;20207;-77
2023/07/27 09:20:56;;;;;;;4.40;4.10;;;20.60;99.90;;;;;;5050356;28;20253;-76
2023/07/27 09:23:23;;;;;;;5.73;5.33;;;20.70;99.90;;;;;;5043224;28;20566;-77
2023/07/27 09:25:54;;;;;;;5.57;5.17;;;21.00;99.90;;;;;;5036663;28;20203;-76
2023/07/27 09:28:26;;;;;;;3.07;2.87;;;21.40;99.90;;;;;;5045212;28;20271;-77
2023/07/27 09:30:57;;;;;;;2.97;2.77;;;21.60;99.90;;;;;;5042590;28;20265;-77
2023/07/27 09:33:24;;;;;;;6.30;5.90;;;21.70;99.90;;;;;;5040534;28;20655;-77
2023/07/27 09:35:51;;;;;;;3.50;3.20;;;21.70;99.90;;;;;;5041422;28;20206;-76
2023/07/27 09:38:24;;;;;;;3.10;2.80;;;21.70;99.90;;;;;;5049029;28;20246;-77
2023/07/27 09:40:52;;;;;;;6.30;5.90;;;21.60;99.90;;;;;;5041669;28;20621;-76
2023/07/27 09:43:19;;;;;;;3.63;3.33;;;21.50;99.90;;;;;;5041156;28;20231;-76
2023/07/27 09:45:47;;;;;;;3.43;2.60;;;21.40;99.90;;;;;;5037352;28;20209;-77
2023/07/27 09:48:14;;;;;;;4.30;4.10;;;21.20;99.90;;;;;;5047893;28;20196;-78
2023/07/27 09:50:43;;;;;;;3.70;3.47;;;21.10;99.90;;;;;;5050147;28;20215;-79
2023/07/27 09:53:13;;;;;;;4.80;4.50;;;21.10;99.90;;;;;;5052683;28;20678;-79
2023/07/27 09:55:42;;;;;;;3.00;2.70;;;21.00;99.90;;;;;;5050328;28;20200;-78
2023/07/27 09:58:09;;;;;;;7.17;6.67;;;20.90;99.90;;;;;;5055655;28;20199;-79
2023/07/27 10:00:36;;;;;;;4.50;4.20;;;20.70;99.90;;;;;;5053391;28;20192;-79
2023/07/27 10:03:04;;;;;;;2.97;2.70;;;20.60;99.90;;;;;;5051087;28;20199;-78
2023/07/27 10:05:31;;;;;;;3.43;2.83;;;20.70;99.90;;;;;;5057843;28;20277;-79
2023/07/27 10:07:58;;;;;;;3.57;3.27;;;20.70;99.90;;;;;;5047013;28;20208;-78
2023/07/27 10:10:35;;;;;;;3.40;3.10;;;20.90;99.90;;;;;;5049909;28;20220;-78
2023/07/27 10:13:06;;;;;;;3.00;2.80;;;20.90;99.90;;;;;;5054183;28;20207;-79
2023/07/27 10:15:40;;;;;;;2.90;2.70;;;20.90;99.90;;;;;;5053746;28;20242;-78
2023/07/27 10:18:12;;;;;;;4.13;3.00;;;20.90;99.90;;;;;;5050338;28;20226;-79
2023/07/27 10:20:39;;;;;;;3.93;3.13;;;20.90;99.90;;;;;;5061554;28;20196;-79
2023/07/27 10:23:11;;;;;;;5.10;3.40;;;20.80;99.90;;;;;;5061101;28;20199;-79
2023/07/27 10:26:06;;;;;;;8.00;7.40;;;20.70;99.90;;;;;;5056214;28;20676;-79
2023/07/27 10:28:37;;;;;;;3.03;2.80;;;20.50;99.90;;;;;;5044879;28;20222;-79
2023/07/27 10:31:23;;;;;;;3.10;2.80;;;20.60;99.90;;;;;;5058556;28;20195;-78
2023/07/27 10:33:55;;;;;;;2.70;2.50;;;20.60;99.90;;;;;;5046187;28;20736;-78
2023/07/27 10:36:23;;;;;;;3.00;2.80;;;20.60;99.90;;;;;;5044993;28;20282;-78
2023/07/27 10:38:54;;;;;;;3.20;3.00;;;20.70;99.90;;;;;;5060373;28;20199;-79
2023/07/27 10:41:23;;;;;;;3.50;3.20;;;20.80;99.90;;;;;;5049828;28;20208;-79
2023/07/27 10:44:15;;;;;;;3.20;3.00;;;20.80;99.90;;;;;;5049803;28;20234;-79
2023/07/27 10:46:46;;;;;;;3.37;3.10;;;21.00;99.90;;;;;;5050962;28;20192;-79
2023/07/27 10:49:16;;;;;;;6.27;5.87;;;21.10;99.90;;;;;;5042425;28;20304;-79
2023/07/27 10:51:45;;;;;;;3.30;3.10;;;21.20;99.90;;;;;;5049183;28;20196;-79
2023/07/27 10:54:12;;;;;;;4.60;4.20;;;21.50;99.90;;;;;;5042663;28;20231;-79
2023/07/27 10:56:41;;;;;;;8.20;7.60;;;21.70;99.90;;;;;;5045978;28;20211;-79
2023/07/27 10:59:11;;;;;;;4.53;4.13;;;21.80;99.90;;;;;;5055696;28;20199;-79
2023/07/27 11:01:38;;;;;;;3.93;3.53;;;21.90;99.90;;;;;;5045396;28;20211;-79
2023/07/27 11:04:06;;;;;;;9.40;8.80;;;22.20;99.90;;;;;;5052862;28;20219;-79
2023/07/27 11:06:41;;;;;;;7.87;7.17;;;22.60;99.90;;;;;;5053748;28;20206;-79
2023/07/27 11:09:11;;;;;;;7.00;6.50;;;23.10;99.90;;;;;;5053240;28;20233;-80
2023/07/27 11:11:38;;;;;;;4.57;4.17;;;23.60;99.90;;;;;;5041725;28;20192;-79
2023/07/27 11:14:06;;;;;;;9.37;8.77;;;23.90;99.90;;;;;;5042486;28;20231;-80
2023/07/27 11:16:37;;;;;;;5.83;5.43;;;24.30;99.90;;;;;;5053915;28;20290;-79
2023/07/27 11:19:04;;;;;;;8.93;8.33;;;24.40;99.90;;;;;;5046778;28;20604;-80
2023/07/27 11:21:33;;;;;;;4.73;4.43;;;24.40;99.90;;;;;;5050586;28;20230;-80
2023/07/27 11:24:01;;;;;;;7.63;7.13;;;24.40;99.90;;;;;;5047860;28;20218;-79
2023/07/27 11:26:28;;;;;;;4.60;4.30;;;24.50;99.90;;;;;;5054910;28;20199;-79
2023/07/27 11:28:55;;;;;;;8.10;7.60;;;24.70;99.90;;;;;;5052387;28;20202;-79
2023/07/27 11:31:22;;;;;;;5.30;5.00;;;24.70;99.90;;;;;;5051269;28;20208;-79
2023/07/27 11:33:49;;;;;;;3.90;3.60;;;24.70;99.90;;;;;;5043395;28;20227;-79
2023/07/27 11:36:16;;;;;;;6.63;6.13;;;24.70;99.90;;;;;;5046733;28;20234;-79
2023/07/27 11:38:44;;;;;;;3.10;2.90;;;24.70;99.90;;;;;;5052728;28;20206;-78
2023/07/27 11:41:11;;;;;;;4.77;4.43;;;24.80;99.90;;;;;;5040074;28;20261;-79
2023/07/27 11:43:38;;;;;;;5.13;4.73;;;24.80;99.90;;;;;;5038665;28;20290;-78
2023/07/27 11:46:05;;;;;;;7.67;7.17;;;24.90;99.90;;;;;;5042721;28;20196;-79
2023/07/27 11:48:33;;;;;;;6.77;6.23;;;24.80;99.90;;;;;;5057241;28;20195;-78
2023/07/27 11:51:01;;;;;;;5.37;5.00;;;24.50;99.90;;;;;;5040160;28;20265;-79
2023/07/27 11:53:28;;;;;;;3.60;3.40;;;24.20;99.90;;;;;;5054320;28;20210;-79
2023/07/27 11:55:57;;;;;;;2.90;2.70;;;24.00;99.90;;;;;;5046984;28;20200;-78
2023/07/27 11:58:27;;;;;;;6.30;5.90;;;23.80;99.90;;;;;;5058881;28;20200;-79
2023/07/27 12:00:56;;;;;;;6.60;6.20;;;23.80;99.90;;;;;;5047311;28;20192;-79
2023/07/27 12:03:24;;;;;;;7.00;6.60;;;23.80;99.90;;;;;;5046932;28;20226;-78
2023/07/27 12:05:54;;;;;;;7.37;6.87;;;23.70;99.90;;;;;;5048392;28;20209;-79
2023/07/27 12:08:22;;;;;;;7.60;7.10;;;23.60;99.90;;;;;;5063299;28;20239;-79
2023/07/27 12:10:53;;;;;;;6.53;6.13;;;23.60;99.90;;;;;;5060528;28;20327;-79
2023/07/27 12:13:22;;;;;;;2.70;2.50;;;23.50;99.90;;;;;;5053976;28;20733;-78
2023/07/27 12:15:58;;;;;;;3.70;3.27;;;23.40;99.90;;;;;;5058115;28;20640;-78
2023/07/27 12:18:26;;;;;;;3.10;2.90;;;23.30;99.90;;;;;;5064829;28;20213;-78
2023/07/27 12:20:54;;;;;;;4.90;4.50;;;23.20;99.90;;;;;;5052483;28;20246;-78
2023/07/27 12:23:20;;;;;;;7.27;6.77;;;23.10;99.90;;;;;;5059736;28;20662;-78
2023/07/27 12:25:48;;;;;;;6.77;6.37;;;23.10;99.90;;;;;;5048281;28;20261;-78
2023/07/27 12:28:15;;;;;;;6.40;5.03;;;22.90;99.90;;;;;;5054591;28;20196;-78
2023/07/27 12:30:43;;;;;;;6.17;5.77;;;22.80;99.90;;;;;;5060814;28;20219;-78
2023/07/27 12:33:10;;;;;;;7.33;6.83;;;22.60;99.90;;;;;;5048071;28;20207;-79
2023/07/27 12:35:37;;;;;;;7.33;5.93;;;22.50;99.90;;;;;;5055716;28;20575;-78
2023/07/27 12:38:04;;;;;;;3.37;2.83;;;22.30;99.90;;;;;;5056112;28;20632;-78
2023/07/27 12:40:31;;;;;;;4.07;3.10;;;22.10;99.90;;;;;;5045288;28;20609;-78
2023/07/27 12:42:58;;;;;;;6.43;5.93;;;21.90;99.90;;;;;;5060682;28;20199;-77
2023/07/27 12:45:26;;;;;;;8.20;7.50;;;21.80;99.90;;;;;;5053341;28;20212;-78
2023/07/27 12:47:54;;;;;;;7.23;6.73;;;21.90;99.90;;;;;;5062997;28;20200;-78
2023/07/27 12:50:21;;;;;;;7.40;6.90;;;22.00;99.90;;;;;;5052136;28;20694;-78